sensor_id;sensor_type;location;lat;lon;timestamp;temperature;humidity
8188;DHT22;4135;49.184;9.722;2022-07-29T00:01:31;23.60;55.90
8188;DHT22;4135;49.184;9.722;2022-07-29T00:04:00;23.50;56.10
8188;DHT22;4135;49.184;9.722;2022-07-29T00:06:30;23.60;56.20
8188;DHT22;4135;49.184;9.722;2022-07-29T00:08:59;23.40;56.40
8188;DHT22;4135;49.184;9.722;2022-07-29T00:11:29;23.40;56.60
8188;DHT22;4135;49.184;9.722;2022-07-29T00:13:58;23.40;56.70
8188;DHT22;4135;49.184;9.722;2022-07-29T00:16:28;23.40;56.70
8188;DHT22;4135;49.184;9.722;2022-07-29T00:18:57;23.50;56.70
8188;DHT22;4135;49.184;9.722;2022-07-29T00:21:27;23.50;56.70
8188;DHT22;4135;49.184;9.722;2022-07-29T00:23:56;23.40;56.70
8188;DHT22;4135;49.184;9.722;2022-07-29T00:26:27;23.50;56.80
8188;DHT22;4135;49.184;9.722;2022-07-29T00:29:02;23.40;56.80
8188;DHT22;4135;49.184;9.722;2022-07-29T00:31:31;23.50;56.80
8188;DHT22;4135;49.184;9.722;2022-07-29T00:34:01;23.50;56.80
8188;DHT22;4135;49.184;9.722;2022-07-29T00:36:31;23.50;56.90
8188;DHT22;4135;49.184;9.722;2022-07-29T00:39:01;23.40;56.90
8188;DHT22;4135;49.184;9.722;2022-07-29T00:41:30;23.40;57.00
8188;DHT22;4135;49.184;9.722;2022-07-29T00:44:00;23.50;57.10
8188;DHT22;4135;49.184;9.722;2022-07-29T00:46:29;23.50;57.10
8188;DHT22;4135;49.184;9.722;2022-07-29T00:48:59;23.50;57.10
8188;DHT22;4135;49.184;9.722;2022-07-29T00:51:28;23.50;57.10
8188;DHT22;4135;49.184;9.722;2022-07-29T00:53:58;23.50;57.20
8188;DHT22;4135;49.184;9.722;2022-07-29T00:56:31;23.50;57.10
8188;DHT22;4135;49.184;9.722;2022-07-29T00:59:00;23.50;57.10
8188;DHT22;4135;49.184;9.722;2022-07-29T01:01:30;23.50;57.20
8188;DHT22;4135;49.184;9.722;2022-07-29T01:03:59;23.40;57.30
8188;DHT22;4135;49.184;9.722;2022-07-29T01:06:29;23.40;57.50
8188;DHT22;4135;49.184;9.722;2022-07-29T01:08:59;23.30;57.70
8188;DHT22;4135;49.184;9.722;2022-07-29T01:11:29;23.30;57.90
8188;DHT22;4135;49.184;9.722;2022-07-29T01:13:59;23.20;57.90
8188;DHT22;4135;49.184;9.722;2022-07-29T01:16:32;23.20;57.90
8188;DHT22;4135;49.184;9.722;2022-07-29T01:19:23;21.80;56.70
8188;DHT22;4135;49.184;9.722;2022-07-29T01:21:59;23.20;58.00
8188;DHT22;4135;49.184;9.722;2022-07-29T01:30:27;23.20;58.20
8188;DHT22;4135;49.184;9.722;2022-07-29T01:33:04;23.10;58.20
8188;DHT22;4135;49.184;9.722;2022-07-29T01:35:39;23.10;58.50
8188;DHT22;4135;49.184;9.722;2022-07-29T01:38:25;23.00;58.60
8188;DHT22;4135;49.184;9.722;2022-07-29T01:41:05;23.00;58.60
8188;DHT22;4135;49.184;9.722;2022-07-29T01:43:42;23.00;58.70
8188;DHT22;4135;49.184;9.722;2022-07-29T01:46:17;23.10;58.70
8188;DHT22;4135;49.184;9.722;2022-07-29T01:48:55;23.10;58.70
8188;DHT22;4135;49.184;9.722;2022-07-29T01:51:48;23.10;58.60
8188;DHT22;4135;49.184;9.722;2022-07-29T01:56:51;23.10;58.60
8188;DHT22;4135;49.184;9.722;2022-07-29T01:59:23;23.10;58.60
8188;DHT22;4135;49.184;9.722;2022-07-29T02:01:55;23.10;58.60
8188;DHT22;4135;49.184;9.722;2022-07-29T02:04:27;23.10;58.70
8188;DHT22;4135;49.184;9.722;2022-07-29T02:07:02;23.10;58.80
8188;DHT22;4135;49.184;9.722;2022-07-29T02:09:35;23.10;58.90
8188;DHT22;4135;49.184;9.722;2022-07-29T02:12:06;23.00;58.80
8188;DHT22;4135;49.184;9.722;2022-07-29T02:14:41;23.00;58.90
8188;DHT22;4135;49.184;9.722;2022-07-29T02:17:13;23.00;59.00
8188;DHT22;4135;49.184;9.722;2022-07-29T02:19:45;23.00;59.00
8188;DHT22;4135;49.184;9.722;2022-07-29T02:22:16;23.00;59.00
8188;DHT22;4135;49.184;9.722;2022-07-29T02:24:49;23.00;59.10
8188;DHT22;4135;49.184;9.722;2022-07-29T02:27:21;23.00;59.00
8188;DHT22;4135;49.184;9.722;2022-07-29T02:29:53;23.00;59.10
8188;DHT22;4135;49.184;9.722;2022-07-29T02:32:25;23.00;59.10
8188;DHT22;4135;49.184;9.722;2022-07-29T02:34:58;22.90;59.00
8188;DHT22;4135;49.184;9.722;2022-07-29T02:37:29;22.90;59.10
8188;DHT22;4135;49.184;9.722;2022-07-29T02:40:00;23.00;59.10
8188;DHT22;4135;49.184;9.722;2022-07-29T02:42:31;22.90;59.10
8188;DHT22;4135;49.184;9.722;2022-07-29T02:45:01;22.90;59.10
8188;DHT22;4135;49.184;9.722;2022-07-29T02:47:36;22.90;59.20
8188;DHT22;4135;49.184;9.722;2022-07-29T02:52:42;22.90;59.30
8188;DHT22;4135;49.184;9.722;2022-07-29T02:55:29;22.90;59.20
8188;DHT22;4135;49.184;9.722;2022-07-29T02:58:03;22.90;59.20
8188;DHT22;4135;49.184;9.722;2022-07-29T03:00:37;22.80;59.20
8188;DHT22;4135;49.184;9.722;2022-07-29T03:03:11;22.80;59.30
8188;DHT22;4135;49.184;9.722;2022-07-29T03:05:41;22.80;59.30
8188;DHT22;4135;49.184;9.722;2022-07-29T03:08:11;22.80;59.30
8188;DHT22;4135;49.184;9.722;2022-07-29T03:10:44;22.80;59.40
8188;DHT22;4135;49.184;9.722;2022-07-29T03:13:15;22.80;59.40
8188;DHT22;4135;49.184;9.722;2022-07-29T03:15:45;22.80;59.50
8188;DHT22;4135;49.184;9.722;2022-07-29T03:18:15;22.60;59.70
8188;DHT22;4135;49.184;9.722;2022-07-29T03:20:44;22.60;59.80
8188;DHT22;4135;49.184;9.722;2022-07-29T03:23:19;22.70;59.80
8188;DHT22;4135;49.184;9.722;2022-07-29T03:25:50;22.70;59.70
8188;DHT22;4135;49.184;9.722;2022-07-29T03:28:19;22.70;59.80
8188;DHT22;4135;49.184;9.722;2022-07-29T03:30:49;22.70;59.80
8188;DHT22;4135;49.184;9.722;2022-07-29T03:33:19;22.60;59.80
8188;DHT22;4135;49.184;9.722;2022-07-29T03:35:48;22.50;60.10
8188;DHT22;4135;49.184;9.722;2022-07-29T03:38:18;22.40;60.10
8188;DHT22;4135;49.184;9.722;2022-07-29T03:40:56;22.50;60.10
8188;DHT22;4135;49.184;9.722;2022-07-29T03:43:32;22.50;60.00
8188;DHT22;4135;49.184;9.722;2022-07-29T03:46:05;22.50;60.00
8188;DHT22;4135;49.184;9.722;2022-07-29T03:48:39;22.50;60.00
8188;DHT22;4135;49.184;9.722;2022-07-29T03:51:11;22.50;60.00
8188;DHT22;4135;49.184;9.722;2022-07-29T03:53:41;22.50;60.10
8188;DHT22;4135;49.184;9.722;2022-07-29T03:56:16;22.40;60.20
8188;DHT22;4135;49.184;9.722;2022-07-29T03:58:46;22.40;60.30
8188;DHT22;4135;49.184;9.722;2022-07-29T04:01:16;22.40;60.40
8188;DHT22;4135;49.184;9.722;2022-07-29T04:03:47;22.20;60.70
8188;DHT22;4135;49.184;9.722;2022-07-29T04:06:16;22.20;60.70
8188;DHT22;4135;49.184;9.722;2022-07-29T04:08:46;22.30;60.90
8188;DHT22;4135;49.184;9.722;2022-07-29T04:11:15;22.40;60.70
8188;DHT22;4135;49.184;9.722;2022-07-29T04:13:45;22.40;60.60
8188;DHT22;4135;49.184;9.722;2022-07-29T04:16:14;22.40;60.50
8188;DHT22;4135;49.184;9.722;2022-07-29T04:18:44;22.40;60.40
8188;DHT22;4135;49.184;9.722;2022-07-29T04:21:13;22.40;60.50
8188;DHT22;4135;49.184;9.722;2022-07-29T04:23:43;22.30;60.70
8188;DHT22;4135;49.184;9.722;2022-07-29T04:26:14;22.20;60.90
8188;DHT22;4135;49.184;9.722;2022-07-29T04:28:44;22.10;61.30
8188;DHT22;4135;49.184;9.722;2022-07-29T04:31:14;22.20;61.30
8188;DHT22;4135;49.184;9.722;2022-07-29T04:33:44;22.20;61.50
8188;DHT22;4135;49.184;9.722;2022-07-29T04:36:13;22.10;61.60
8188;DHT22;4135;49.184;9.722;2022-07-29T04:38:44;22.00;62.10
8188;DHT22;4135;49.184;9.722;2022-07-29T04:41:13;22.00;62.30
8188;DHT22;4135;49.184;9.722;2022-07-29T04:43:43;22.00;62.10
8188;DHT22;4135;49.184;9.722;2022-07-29T04:46:12;22.10;61.90
8188;DHT22;4135;49.184;9.722;2022-07-29T04:48:42;22.20;61.70
8188;DHT22;4135;49.184;9.722;2022-07-29T04:51:15;22.20;61.40
8188;DHT22;4135;49.184;9.722;2022-07-29T04:53:44;22.30;61.50
8188;DHT22;4135;49.184;9.722;2022-07-29T04:56:14;22.30;61.50
8188;DHT22;4135;49.184;9.722;2022-07-29T04:58:44;22.20;61.40
8188;DHT22;4135;49.184;9.722;2022-07-29T05:01:14;22.20;61.60
8188;DHT22;4135;49.184;9.722;2022-07-29T05:03:44;22.20;61.70
8188;DHT22;4135;49.184;9.722;2022-07-29T05:06:14;22.10;61.70
8188;DHT22;4135;49.184;9.722;2022-07-29T05:08:44;22.10;62.00
8188;DHT22;4135;49.184;9.722;2022-07-29T05:11:13;22.10;62.00
8188;DHT22;4135;49.184;9.722;2022-07-29T05:13:43;22.10;61.90
8188;DHT22;4135;49.184;9.722;2022-07-29T05:16:13;22.20;61.90
8188;DHT22;4135;49.184;9.722;2022-07-29T05:18:42;22.20;62.00
8188;DHT22;4135;49.184;9.722;2022-07-29T05:21:12;22.10;62.10
8188;DHT22;4135;49.184;9.722;2022-07-29T05:23:41;22.00;62.50
8188;DHT22;4135;49.184;9.722;2022-07-29T05:26:11;21.90;63.10
8188;DHT22;4135;49.184;9.722;2022-07-29T05:28:41;21.70;63.80
8188;DHT22;4135;49.184;9.722;2022-07-29T05:31:10;21.70;64.30
8188;DHT22;4135;49.184;9.722;2022-07-29T05:33:41;21.50;65.20
8188;DHT22;4135;49.184;9.722;2022-07-29T05:36:10;21.40;66.00
8188;DHT22;4135;49.184;9.722;2022-07-29T05:38:40;21.40;66.70
8188;DHT22;4135;49.184;9.722;2022-07-29T05:41:10;21.40;67.10
8188;DHT22;4135;49.184;9.722;2022-07-29T05:43:40;21.50;67.50
8188;DHT22;4135;49.184;9.722;2022-07-29T05:46:09;21.60;67.70
8188;DHT22;4135;49.184;9.722;2022-07-29T05:48:39;21.60;67.60
8188;DHT22;4135;49.184;9.722;2022-07-29T05:51:08;21.70;67.60
8188;DHT22;4135;49.184;9.722;2022-07-29T05:53:38;21.70;68.20
8188;DHT22;4135;49.184;9.722;2022-07-29T05:56:07;21.60;68.60
8188;DHT22;4135;49.184;9.722;2022-07-29T05:58:37;21.70;69.00
8188;DHT22;4135;49.184;9.722;2022-07-29T06:01:06;21.70;69.00
8188;DHT22;4135;49.184;9.722;2022-07-29T06:03:36;21.70;68.70
8188;DHT22;4135;49.184;9.722;2022-07-29T06:06:07;21.80;68.60
8188;DHT22;4135;49.184;9.722;2022-07-29T06:08:42;21.80;68.70
8188;DHT22;4135;49.184;9.722;2022-07-29T06:11:12;21.80;68.60
8188;DHT22;4135;49.184;9.722;2022-07-29T06:13:42;21.80;68.60
8188;DHT22;4135;49.184;9.722;2022-07-29T06:16:11;21.80;68.60
8188;DHT22;4135;49.184;9.722;2022-07-29T06:18:41;21.80;68.50
8188;DHT22;4135;49.184;9.722;2022-07-29T06:21:10;21.80;68.60
8188;DHT22;4135;49.184;9.722;2022-07-29T06:23:40;21.80;68.40
8188;DHT22;4135;49.184;9.722;2022-07-29T06:26:10;21.80;67.80
8188;DHT22;4135;49.184;9.722;2022-07-29T06:28:39;21.80;68.40
8188;DHT22;4135;49.184;9.722;2022-07-29T06:31:09;21.90;67.80
8188;DHT22;4135;49.184;9.722;2022-07-29T06:33:38;21.90;68.10
8188;DHT22;4135;49.184;9.722;2022-07-29T06:36:08;21.90;68.60
8188;DHT22;4135;49.184;9.722;2022-07-29T06:38:38;21.90;67.90
8188;DHT22;4135;49.184;9.722;2022-07-29T06:41:08;21.90;67.60
8188;DHT22;4135;49.184;9.722;2022-07-29T06:43:42;21.80;67.50
8188;DHT22;4135;49.184;9.722;2022-07-29T06:46:15;21.80;67.80
8188;DHT22;4135;49.184;9.722;2022-07-29T06:48:45;21.90;68.10
8188;DHT22;4135;49.184;9.722;2022-07-29T06:51:15;21.90;68.40
8188;DHT22;4135;49.184;9.722;2022-07-29T06:53:45;21.90;68.40
8188;DHT22;4135;49.184;9.722;2022-07-29T06:56:15;21.90;68.40
8188;DHT22;4135;49.184;9.722;2022-07-29T06:58:44;22.00;68.80
8188;DHT22;4135;49.184;9.722;2022-07-29T07:01:14;22.00;68.80
8188;DHT22;4135;49.184;9.722;2022-07-29T07:03:43;22.00;67.90
8188;DHT22;4135;49.184;9.722;2022-07-29T07:06:13;22.10;68.60
8188;DHT22;4135;49.184;9.722;2022-07-29T07:08:42;22.10;68.10
8188;DHT22;4135;49.184;9.722;2022-07-29T07:11:12;22.10;68.80
8188;DHT22;4135;49.184;9.722;2022-07-29T07:13:41;22.20;68.30
8188;DHT22;4135;49.184;9.722;2022-07-29T07:16:11;22.20;68.10
8188;DHT22;4135;49.184;9.722;2022-07-29T07:18:40;22.30;68.40
8188;DHT22;4135;49.184;9.722;2022-07-29T07:21:10;22.20;67.90
8188;DHT22;4135;49.184;9.722;2022-07-29T07:23:40;22.20;68.20
8188;DHT22;4135;49.184;9.722;2022-07-29T07:26:09;22.30;68.20
8188;DHT22;4135;49.184;9.722;2022-07-29T07:28:40;22.30;68.60
8188;DHT22;4135;49.184;9.722;2022-07-29T07:31:10;22.30;68.10
8188;DHT22;4135;49.184;9.722;2022-07-29T07:33:40;22.30;67.80
8188;DHT22;4135;49.184;9.722;2022-07-29T07:36:09;22.40;67.70
8188;DHT22;4135;49.184;9.722;2022-07-29T07:38:39;22.40;67.60
8188;DHT22;4135;49.184;9.722;2022-07-29T07:41:08;22.40;67.50
8188;DHT22;4135;49.184;9.722;2022-07-29T07:43:38;22.40;67.10
8188;DHT22;4135;49.184;9.722;2022-07-29T07:46:07;22.40;67.40
8188;DHT22;4135;49.184;9.722;2022-07-29T07:48:37;22.40;67.50
8188;DHT22;4135;49.184;9.722;2022-07-29T07:51:07;22.50;67.20
8188;DHT22;4135;49.184;9.722;2022-07-29T07:53:36;22.50;68.00
8188;DHT22;4135;49.184;9.722;2022-07-29T07:56:06;22.50;68.00
8188;DHT22;4135;49.184;9.722;2022-07-29T07:58:36;22.50;69.00
8188;DHT22;4135;49.184;9.722;2022-07-29T08:01:06;22.60;69.30
8188;DHT22;4135;49.184;9.722;2022-07-29T08:03:35;22.60;68.10
8188;DHT22;4135;49.184;9.722;2022-07-29T08:06:05;22.60;67.80
8188;DHT22;4135;49.184;9.722;2022-07-29T08:08:35;22.60;67.90
8188;DHT22;4135;49.184;9.722;2022-07-29T08:11:04;22.70;68.80
8188;DHT22;4135;49.184;9.722;2022-07-29T08:13:36;22.80;68.10
8188;DHT22;4135;49.184;9.722;2022-07-29T08:16:07;22.80;67.80
8188;DHT22;4135;49.184;9.722;2022-07-29T08:18:45;22.80;67.60
8188;DHT22;4135;49.184;9.722;2022-07-29T08:21:15;22.90;68.10
8188;DHT22;4135;49.184;9.722;2022-07-29T08:23:45;22.90;67.30
8188;DHT22;4135;49.184;9.722;2022-07-29T08:26:43;22.90;66.90
8188;DHT22;4135;49.184;9.722;2022-07-29T08:29:13;23.00;66.90
8188;DHT22;4135;49.184;9.722;2022-07-29T08:31:43;23.10;67.30
8188;DHT22;4135;49.184;9.722;2022-07-29T08:34:12;23.10;67.00
8188;DHT22;4135;49.184;9.722;2022-07-29T08:36:42;23.10;66.60
8188;DHT22;4135;49.184;9.722;2022-07-29T08:39:11;23.10;66.30
8188;DHT22;4135;49.184;9.722;2022-07-29T08:41:41;23.10;66.20
8188;DHT22;4135;49.184;9.722;2022-07-29T08:44:10;23.00;66.10
8188;DHT22;4135;49.184;9.722;2022-07-29T08:46:40;23.00;66.10
8188;DHT22;4135;49.184;9.722;2022-07-29T08:49:09;23.00;66.10
8188;DHT22;4135;49.184;9.722;2022-07-29T08:51:40;23.10;66.30
8188;DHT22;4135;49.184;9.722;2022-07-29T08:54:11;23.10;66.30
8188;DHT22;4135;49.184;9.722;2022-07-29T08:56:40;23.10;66.20
8188;DHT22;4135;49.184;9.722;2022-07-29T08:59:11;23.10;66.00
8188;DHT22;4135;49.184;9.722;2022-07-29T09:01:43;23.10;66.20
8188;DHT22;4135;49.184;9.722;2022-07-29T09:04:14;23.20;66.20
8188;DHT22;4135;49.184;9.722;2022-07-29T09:06:47;23.10;65.80
8188;DHT22;4135;49.184;9.722;2022-07-29T09:09:18;23.10;66.20
8188;DHT22;4135;49.184;9.722;2022-07-29T09:11:48;23.20;66.40
8188;DHT22;4135;49.184;9.722;2022-07-29T09:14:17;23.30;66.80
8188;DHT22;4135;49.184;9.722;2022-07-29T09:16:53;23.30;66.10
8188;DHT22;4135;49.184;9.722;2022-07-29T09:21:58;23.40;66.70
8188;DHT22;4135;49.184;9.722;2022-07-29T09:27:09;23.40;66.00
8188;DHT22;4135;49.184;9.722;2022-07-29T09:29:40;23.40;66.00
8188;DHT22;4135;49.184;9.722;2022-07-29T09:32:10;23.40;66.20
8188;DHT22;4135;49.184;9.722;2022-07-29T09:34:40;23.40;66.60
8188;DHT22;4135;49.184;9.722;2022-07-29T09:37:09;23.40;66.00
8188;DHT22;4135;49.184;9.722;2022-07-29T09:39:39;23.40;65.20
8188;DHT22;4135;49.184;9.722;2022-07-29T09:42:27;23.30;64.40
8188;DHT22;4135;49.184;9.722;2022-07-29T09:44:57;23.30;63.70
8188;DHT22;4135;49.184;9.722;2022-07-29T09:47:41;23.20;63.00
8188;DHT22;4135;49.184;9.722;2022-07-29T09:50:11;23.20;62.50
8188;DHT22;4135;49.184;9.722;2022-07-29T09:52:51;23.20;62.10
8188;DHT22;4135;49.184;9.722;2022-07-29T09:55:20;23.20;61.70
8188;DHT22;4135;49.184;9.722;2022-07-29T09:57:50;23.10;61.20
8188;DHT22;4135;49.184;9.722;2022-07-29T10:00:20;23.10;60.90
8188;DHT22;4135;49.184;9.722;2022-07-29T10:02:59;23.10;60.70
8188;DHT22;4135;49.184;9.722;2022-07-29T10:05:30;23.10;60.40
8188;DHT22;4135;49.184;9.722;2022-07-29T10:07:59;23.10;60.20
8188;DHT22;4135;49.184;9.722;2022-07-29T10:10:33;23.10;60.10
8188;DHT22;4135;49.184;9.722;2022-07-29T10:13:08;23.00;59.70
8188;DHT22;4135;49.184;9.722;2022-07-29T10:15:40;23.10;59.60
8188;DHT22;4135;49.184;9.722;2022-07-29T10:18:14;23.10;59.60
8188;DHT22;4135;49.184;9.722;2022-07-29T10:20:46;23.10;59.60
8188;DHT22;4135;49.184;9.722;2022-07-29T10:23:16;23.10;59.40
8188;DHT22;4135;49.184;9.722;2022-07-29T10:25:46;23.10;59.40
8188;DHT22;4135;49.184;9.722;2022-07-29T10:28:15;23.10;59.30
8188;DHT22;4135;49.184;9.722;2022-07-29T10:30:46;23.10;59.20
8188;DHT22;4135;49.184;9.722;2022-07-29T10:33:37;23.10;59.10
8188;DHT22;4135;49.184;9.722;2022-07-29T10:44:21;23.10;58.90
8188;DHT22;4135;49.184;9.722;2022-07-29T10:46:52;23.10;58.90
8188;DHT22;4135;49.184;9.722;2022-07-29T10:49:23;23.10;58.80
8188;DHT22;4135;49.184;9.722;2022-07-29T10:57:27;23.10;58.80
8188;DHT22;4135;49.184;9.722;2022-07-29T11:05:15;23.10;58.90
8188;DHT22;4135;49.184;9.722;2022-07-29T11:10:42;23.10;59.10
8188;DHT22;4135;49.184;9.722;2022-07-29T11:13:11;23.20;59.10
8188;DHT22;4135;49.184;9.722;2022-07-29T11:15:54;23.20;61.80
8188;DHT22;4135;49.184;9.722;2022-07-29T11:18:24;23.30;61.30
8188;DHT22;4135;49.184;9.722;2022-07-29T11:20:54;23.30;60.90
8188;DHT22;4135;49.184;9.722;2022-07-29T11:23:30;23.30;60.60
8188;DHT22;4135;49.184;9.722;2022-07-29T11:34:34;23.30;60.60
8188;DHT22;4135;49.184;9.722;2022-07-29T11:39:49;23.40;61.60
8188;DHT22;4135;49.184;9.722;2022-07-29T11:45:22;23.40;61.10
8188;DHT22;4135;49.184;9.722;2022-07-29T11:47:56;23.40;60.90
8188;DHT22;4135;49.184;9.722;2022-07-29T11:50:35;23.40;61.00
8188;DHT22;4135;49.184;9.722;2022-07-29T11:53:11;23.40;61.00
8188;DHT22;4135;49.184;9.722;2022-07-29T11:55:41;23.40;60.80
8188;DHT22;4135;49.184;9.722;2022-07-29T11:58:11;23.40;60.60
8188;DHT22;4135;49.184;9.722;2022-07-29T12:00:41;23.40;60.50
8188;DHT22;4135;49.184;9.722;2022-07-29T12:03:11;23.40;60.40
8188;DHT22;4135;49.184;9.722;2022-07-29T12:05:44;23.40;60.20
8188;DHT22;4135;49.184;9.722;2022-07-29T12:10:51;23.40;59.90
8188;DHT22;4135;49.184;9.722;2022-07-29T12:13:21;23.40;59.90
8188;DHT22;4135;49.184;9.722;2022-07-29T12:15:55;23.50;60.10
8188;DHT22;4135;49.184;9.722;2022-07-29T12:18:26;23.50;59.90
8188;DHT22;4135;49.184;9.722;2022-07-29T12:20:57;23.40;59.60
8188;DHT22;4135;49.184;9.722;2022-07-29T12:23:27;23.50;59.60
8188;DHT22;4135;49.184;9.722;2022-07-29T12:25:58;23.50;59.50
8188;DHT22;4135;49.184;9.722;2022-07-29T12:28:28;23.50;59.40
8188;DHT22;4135;49.184;9.722;2022-07-29T12:30:57;23.50;59.10
8188;DHT22;4135;49.184;9.722;2022-07-29T12:33:28;23.50;59.00
8188;DHT22;4135;49.184;9.722;2022-07-29T12:36:02;23.50;58.90
8188;DHT22;4135;49.184;9.722;2022-07-29T12:38:36;23.50;58.90
8188;DHT22;4135;49.184;9.722;2022-07-29T12:41:06;23.60;58.70
8188;DHT22;4135;49.184;9.722;2022-07-29T12:43:35;23.60;58.70
8188;DHT22;4135;49.184;9.722;2022-07-29T12:46:13;23.60;58.60
8188;DHT22;4135;49.184;9.722;2022-07-29T12:48:44;23.60;58.60
8188;DHT22;4135;49.184;9.722;2022-07-29T12:51:13;23.60;58.50
8188;DHT22;4135;49.184;9.722;2022-07-29T12:54:03;23.60;58.50
8188;DHT22;4135;49.184;9.722;2022-07-29T12:56:33;23.60;58.30
8188;DHT22;4135;49.184;9.722;2022-07-29T12:59:17;23.50;58.00
8188;DHT22;4135;49.184;9.722;2022-07-29T13:01:52;23.50;57.90
8188;DHT22;4135;49.184;9.722;2022-07-29T13:04:29;23.50;58.00
8188;DHT22;4135;49.184;9.722;2022-07-29T13:07:04;23.50;58.10
8188;DHT22;4135;49.184;9.722;2022-07-29T13:09:44;23.50;58.10
8188;DHT22;4135;49.184;9.722;2022-07-29T13:12:14;23.50;58.10
8188;DHT22;4135;49.184;9.722;2022-07-29T13:14:49;23.50;57.90
8188;DHT22;4135;49.184;9.722;2022-07-29T13:17:21;23.50;57.90
8188;DHT22;4135;49.184;9.722;2022-07-29T13:20:04;23.50;57.90
8188;DHT22;4135;49.184;9.722;2022-07-29T13:22:34;23.50;58.00
8188;DHT22;4135;49.184;9.722;2022-07-29T13:25:05;23.50;57.90
8188;DHT22;4135;49.184;9.722;2022-07-29T13:27:38;23.50;58.00
8188;DHT22;4135;49.184;9.722;2022-07-29T13:30:09;23.50;58.20
8188;DHT22;4135;49.184;9.722;2022-07-29T13:32:38;23.50;58.10
8188;DHT22;4135;49.184;9.722;2022-07-29T13:35:08;23.50;58.20
8188;DHT22;4135;49.184;9.722;2022-07-29T13:37:38;23.50;58.10
8188;DHT22;4135;49.184;9.722;2022-07-29T13:40:09;23.60;58.20
8188;DHT22;4135;49.184;9.722;2022-07-29T13:42:40;23.50;57.90
8188;DHT22;4135;49.184;9.722;2022-07-29T13:45:10;23.50;57.90
8188;DHT22;4135;49.184;9.722;2022-07-29T13:47:40;23.50;58.00
8188;DHT22;4135;49.184;9.722;2022-07-29T13:50:09;23.50;58.00
8188;DHT22;4135;49.184;9.722;2022-07-29T13:52:39;23.50;57.90
8188;DHT22;4135;49.184;9.722;2022-07-29T13:55:09;23.50;57.80
8188;DHT22;4135;49.184;9.722;2022-07-29T13:57:38;23.50;58.00
8188;DHT22;4135;49.184;9.722;2022-07-29T14:00:08;23.50;58.00
8188;DHT22;4135;49.184;9.722;2022-07-29T14:02:39;23.60;58.10
8188;DHT22;4135;49.184;9.722;2022-07-29T14:05:08;23.60;58.00
8188;DHT22;4135;49.184;9.722;2022-07-29T14:07:39;23.50;57.80
8188;DHT22;4135;49.184;9.722;2022-07-29T14:10:09;23.60;57.80
8188;DHT22;4135;49.184;9.722;2022-07-29T14:12:38;23.60;57.60
8188;DHT22;4135;49.184;9.722;2022-07-29T14:15:08;23.60;57.90
8188;DHT22;4135;49.184;9.722;2022-07-29T14:17:38;23.60;57.70
8188;DHT22;4135;49.184;9.722;2022-07-29T14:20:08;23.60;57.60
8188;DHT22;4135;49.184;9.722;2022-07-29T14:22:37;23.60;57.60
8188;DHT22;4135;49.184;9.722;2022-07-29T14:25:07;23.60;57.80
8188;DHT22;4135;49.184;9.722;2022-07-29T14:27:37;23.60;57.90
8188;DHT22;4135;49.184;9.722;2022-07-29T14:30:07;23.60;57.90
8188;DHT22;4135;49.184;9.722;2022-07-29T14:32:37;23.60;58.10
8188;DHT22;4135;49.184;9.722;2022-07-29T14:35:07;23.60;58.10
8188;DHT22;4135;49.184;9.722;2022-07-29T14:37:37;23.60;58.20
8188;DHT22;4135;49.184;9.722;2022-07-29T14:40:08;23.60;58.20
8188;DHT22;4135;49.184;9.722;2022-07-29T14:42:38;23.70;58.30
8188;DHT22;4135;49.184;9.722;2022-07-29T14:45:09;23.70;58.30
8188;DHT22;4135;49.184;9.722;2022-07-29T14:47:39;23.70;58.30
8188;DHT22;4135;49.184;9.722;2022-07-29T14:50:09;23.70;58.20
8188;DHT22;4135;49.184;9.722;2022-07-29T14:52:39;23.70;58.20
8188;DHT22;4135;49.184;9.722;2022-07-29T14:55:09;23.70;58.10
8188;DHT22;4135;49.184;9.722;2022-07-29T14:57:38;23.70;58.10
8188;DHT22;4135;49.184;9.722;2022-07-29T15:00:08;23.70;58.00
8188;DHT22;4135;49.184;9.722;2022-07-29T15:02:38;23.70;57.90
8188;DHT22;4135;49.184;9.722;2022-07-29T15:05:08;23.70;57.80
8188;DHT22;4135;49.184;9.722;2022-07-29T15:07:37;23.70;57.70
8188;DHT22;4135;49.184;9.722;2022-07-29T15:10:07;23.70;57.60
8188;DHT22;4135;49.184;9.722;2022-07-29T15:12:37;23.70;57.40
8188;DHT22;4135;49.184;9.722;2022-07-29T15:15:06;23.70;57.40
8188;DHT22;4135;49.184;9.722;2022-07-29T15:17:36;23.70;57.50
8188;DHT22;4135;49.184;9.722;2022-07-29T15:20:06;23.70;57.60
8188;DHT22;4135;49.184;9.722;2022-07-29T15:22:36;23.70;57.70
8188;DHT22;4135;49.184;9.722;2022-07-29T15:25:07;23.70;57.70
8188;DHT22;4135;49.184;9.722;2022-07-29T15:27:37;23.70;57.80
8188;DHT22;4135;49.184;9.722;2022-07-29T15:30:07;23.70;57.80
8188;DHT22;4135;49.184;9.722;2022-07-29T15:32:37;23.70;57.70
8188;DHT22;4135;49.184;9.722;2022-07-29T15:35:07;23.60;57.50
8188;DHT22;4135;49.184;9.722;2022-07-29T15:37:38;23.70;58.20
8188;DHT22;4135;49.184;9.722;2022-07-29T15:40:08;23.60;57.50
8188;DHT22;4135;49.184;9.722;2022-07-29T15:42:37;23.60;57.50
8188;DHT22;4135;49.184;9.722;2022-07-29T15:45:07;23.60;57.60
8188;DHT22;4135;49.184;9.722;2022-07-29T15:47:37;23.60;57.70
8188;DHT22;4135;49.184;9.722;2022-07-29T15:50:07;23.60;57.70
8188;DHT22;4135;49.184;9.722;2022-07-29T15:52:42;23.60;57.80
8188;DHT22;4135;49.184;9.722;2022-07-29T15:55:11;23.60;57.70
8188;DHT22;4135;49.184;9.722;2022-07-29T15:57:41;23.60;57.80
8188;DHT22;4135;49.184;9.722;2022-07-29T16:00:11;23.60;57.80
8188;DHT22;4135;49.184;9.722;2022-07-29T16:02:41;23.60;57.80
8188;DHT22;4135;49.184;9.722;2022-07-29T16:05:11;23.60;57.60
8188;DHT22;4135;49.184;9.722;2022-07-29T16:07:41;23.60;57.60
8188;DHT22;4135;49.184;9.722;2022-07-29T16:10:10;23.60;57.80
8188;DHT22;4135;49.184;9.722;2022-07-29T16:12:40;23.60;57.70
8188;DHT22;4135;49.184;9.722;2022-07-29T16:15:09;23.60;57.50
8188;DHT22;4135;49.184;9.722;2022-07-29T16:17:39;23.60;57.40
8188;DHT22;4135;49.184;9.722;2022-07-29T16:20:08;23.50;57.40
8188;DHT22;4135;49.184;9.722;2022-07-29T16:22:38;23.50;57.40
8188;DHT22;4135;49.184;9.722;2022-07-29T16:25:08;23.60;57.20
8188;DHT22;4135;49.184;9.722;2022-07-29T16:27:37;23.50;57.00
8188;DHT22;4135;49.184;9.722;2022-07-29T16:30:07;23.50;57.10
8188;DHT22;4135;49.184;9.722;2022-07-29T16:32:38;23.50;57.20
8188;DHT22;4135;49.184;9.722;2022-07-29T16:35:08;23.50;57.50
8188;DHT22;4135;49.184;9.722;2022-07-29T16:37:38;23.50;57.30
8188;DHT22;4135;49.184;9.722;2022-07-29T16:40:07;23.50;57.40
8188;DHT22;4135;49.184;9.722;2022-07-29T16:42:37;23.50;57.00
8188;DHT22;4135;49.184;9.722;2022-07-29T16:45:07;23.50;57.00
8188;DHT22;4135;49.184;9.722;2022-07-29T16:47:37;23.50;57.00
8188;DHT22;4135;49.184;9.722;2022-07-29T16:50:07;23.50;56.90
8188;DHT22;4135;49.184;9.722;2022-07-29T16:52:37;23.50;56.80
8188;DHT22;4135;49.184;9.722;2022-07-29T16:55:07;23.50;57.20
8188;DHT22;4135;49.184;9.722;2022-07-29T16:57:36;23.40;56.80
8188;DHT22;4135;49.184;9.722;2022-07-29T17:00:07;23.40;56.90
8188;DHT22;4135;49.184;9.722;2022-07-29T17:02:36;23.50;57.00
8188;DHT22;4135;49.184;9.722;2022-07-29T17:05:07;23.40;56.60
8188;DHT22;4135;49.184;9.722;2022-07-29T17:07:40;23.40;56.50
8188;DHT22;4135;49.184;9.722;2022-07-29T17:10:10;23.40;56.50
8188;DHT22;4135;49.184;9.722;2022-07-29T17:12:40;23.40;56.60
8188;DHT22;4135;49.184;9.722;2022-07-29T17:15:11;23.40;56.60
8188;DHT22;4135;49.184;9.722;2022-07-29T17:17:41;23.40;56.40
8188;DHT22;4135;49.184;9.722;2022-07-29T17:20:10;23.40;56.50
8188;DHT22;4135;49.184;9.722;2022-07-29T17:22:40;23.40;56.40